Time;durP1;ratioP1;P1;durP2;ratioP2;P2;SDS_P1;SDS_P2;PMS_P1;PMS_P2;Temp;Humidity;BMP_temperature;BMP_pressure;BME280_temperature;BME280_humidity;BME280_pressure;Samples;Min_cycle;Max_cycle;Signal;HPM_P1;HPM_P2
2022/01/08 00:00:29;;;;;;;36.72;18.67;;;1.50;99.90;;;;;;5110927;28;20048;-67
2022/01/08 00:02:56;;;;;;;32.63;16.73;;;1.50;99.90;;;;;;5110850;28;20047;-66
2022/01/08 00:05:22;;;;;;;39.97;17.95;;;1.50;99.90;;;;;;5110733;28;20538;-67
2022/01/08 00:07:48;;;;;;;37.17;18.05;;;1.30;99.90;;;;;;5110818;28;20044;-66
2022/01/08 00:10:14;;;;;;;36.60;18.60;;;1.50;99.90;;;;;;5110896;28;20043;-66
2022/01/08 00:12:40;;;;;;;39.45;18.83;;;1.60;99.90;;;;;;5110758;28;20624;-66
2022/01/08 00:15:08;;;;;;;40.47;18.55;;;1.20;99.90;;;;;;5110945;28;20118;-66
2022/01/08 00:17:35;;;;;;;39.00;18.42;;;1.30;99.90;;;;;;5110793;28;20094;-67
2022/01/08 00:20:01;;;;;;;44.88;20.17;;;1.60;99.90;;;;;;5111811;28;20047;-66
2022/01/08 00:22:27;;;;;;;49.42;20.05;;;;;;;;;;5110611;28;20057;-67
2022/01/08 00:24:53;;;;;;;40.50;19.52;;;;;;;;;;5093702;28;20255;-66
2022/01/08 00:27:23;;;;;;;44.30;20.55;;;1.30;99.90;;;;;;5110352;28;20039;-66
2022/01/08 00:29:50;;;;;;;49.70;21.67;;;1.40;99.90;;;;;;5110288;28;20096;-66
2022/01/08 00:32:17;;;;;;;47.65;21.92;;;1.50;99.90;;;;;;5110247;28;20040;-68
2022/01/08 00:34:43;;;;;;;46.88;20.88;;;;;;;;;;5110431;28;20055;-69
2022/01/08 00:37:10;;;;;;;46.13;21.00;;;;;;;;;;5110977;28;20065;-69
2022/01/08 00:39:37;;;;;;;51.03;23.35;;;1.90;99.90;;;;;;5110627;28;20051;-69
2022/01/08 00:42:03;;;;;;;49.55;23.10;;;1.30;99.90;;;;;;5110551;28;20380;-69
2022/01/08 00:44:28;;;;;;;51.78;22.95;;;1.60;99.90;;;;;;5110757;28;20126;-69
2022/01/08 00:46:54;;;;;;;48.00;24.10;;;;;;;;;;5110498;28;20613;-69
2022/01/08 00:49:20;;;;;;;59.92;24.17;;;1.50;99.90;;;;;;5110087;28;20526;-66
2022/01/08 00:51:46;;;;;;;52.42;24.85;;;;;;;;;;5109804;28;20108;-66
2022/01/08 00:54:12;;;;;;;60.38;26.23;;;1.80;99.90;;;;;;5110227;28;20361;-66
2022/01/08 00:56:38;;;;;;;54.15;25.65;;;1.80;99.90;;;;;;5110062;28;20055;-66
2022/01/08 00:59:06;;;;;;;50.65;26.55;;;1.80;99.90;;;;;;5111295;28;20043;-66
2022/01/08 01:01:32;;;;;;;58.00;26.30;;;;;;;;;;5092717;28;20116;-66
2022/01/08 01:03:58;;;;;;;60.67;27.65;;;1.60;99.90;;;;;;5109315;28;20130;-66
2022/01/08 01:06:24;;;;;;;56.25;27.83;;;;;;;;;;5092335;28;20052;-66
2022/01/08 01:08:54;;;;;;;54.38;26.40;;;1.80;99.90;;;;;;5110021;28;20162;-66
2022/01/08 01:11:20;;;;;;;53.67;25.42;;;;;;;;;;5109739;28;20127;-67
2022/01/08 01:13:46;;;;;;;50.70;25.63;;;1.70;99.90;;;;;;5109411;28;20048;-67
2022/01/08 01:16:12;;;;;;;53.05;26.60;;;2.00;99.90;;;;;;5109309;28;20044;-66
2022/01/08 01:18:38;;;;;;;53.67;24.88;;;;;;;;;;5109406;28;20121;-66
2022/01/08 01:21:04;;;;;;;51.10;26.00;;;;;;;;;;5092834;28;20072;-66
2022/01/08 01:23:36;;;;;;;54.78;26.00;;;1.70;99.90;;;;;;5109442;28;20046;-67
2022/01/08 01:26:05;;;;;;;55.30;25.88;;;2.50;99.90;;;;;;5092384;28;20044;-67
2022/01/08 01:42:14;;;;;;;45.72;23.83;;;1.50;99.90;;;;;;5109229;28;20047;-67
2022/01/08 01:47:32;;;;;;;52.45;26.98;;;1.50;99.90;;;;;;5109242;28;20056;-67
2022/01/08 01:49:59;;;;;;;55.27;25.33;;;2.10;99.90;;;;;;5110364;28;20127;-67
2022/01/08 01:52:25;;;;;;;50.95;25.52;;;1.40;99.90;;;;;;5096203;28;20289;-68
2022/01/08 01:54:50;;;;;;;50.33;25.35;;;1.80;99.90;;;;;;5113608;28;20063;-68
2022/01/08 01:57:17;;;;;;;49.88;24.67;;;1.40;99.90;;;;;;5096300;28;20036;-68
2022/01/08 01:59:44;;;;;;;57.40;27.08;;;1.40;99.90;;;;;;5096381;28;20035;-68
2022/01/08 02:02:09;;;;;;;52.00;25.08;;;1.30;99.90;;;;;;5113684;28;20142;-68
2022/01/08 02:04:36;;;;;;;52.95;24.92;;;1.30;99.90;;;;;;5113658;28;20171;-68
2022/01/08 02:07:02;;;;;;;49.90;26.20;;;1.30;99.90;;;;;;5114268;28;20056;-68
2022/01/08 02:09:28;;;;;;;57.30;26.33;;;1.10;99.90;;;;;;5113258;28;20089;-68
2022/01/08 02:12:04;;;;;;;58.38;26.90;;;0.90;99.90;;;;;;5113251;28;20039;-67
2022/01/08 02:14:33;;;;;;;53.33;25.83;;;1.10;99.90;;;;;;5096447;28;20043;-67
2022/01/08 02:17:00;;;;;;;53.05;25.85;;;1.00;99.90;;;;;;5113427;28;20051;-67
2022/01/08 02:19:26;;;;;;;56.90;26.40;;;1.10;99.90;;;;;;5113381;28;20132;-68
2022/01/08 02:21:56;;;;;;;56.47;27.58;;;0.90;99.90;;;;;;5113171;28;20503;-67
2022/01/08 02:24:24;;;;;;;52.92;26.35;;;0.90;99.90;;;;;;5113179;28;20126;-67
2022/01/08 02:26:49;;;;;;;55.75;28.77;;;1.00;99.90;;;;;;5095604;28;20906;-67
2022/01/08 02:29:18;;;;;;;48.63;26.25;;;1.00;99.90;;;;;;5112658;28;20044;-67
2022/01/08 02:32:11;;;;;;;54.83;27.70;;;1.00;99.90;;;;;;5112484;28;20043;-67
2022/01/08 02:34:40;;;;;;;52.17;26.67;;;0.90;99.90;;;;;;5112692;28;20051;-67
2022/01/08 02:37:06;;;;;;;58.95;28.40;;;0.90;99.90;;;;;;5113340;28;20044;-68
2022/01/08 02:39:38;;;;;;;52.42;25.85;;;0.90;99.90;;;;;;5112638;28;20112;-68
2022/01/08 02:42:06;;;;;;;49.78;24.33;;;0.80;99.90;;;;;;5112293;28;20486;-67
2022/01/08 02:44:33;;;;;;;54.35;25.15;;;;;;;;;;5112208;28;20559;-68
2022/01/08 02:46:59;;;;;;;46.75;23.63;;;1.00;99.90;;;;;;5112395;28;20055;-68
2022/01/08 02:49:25;;;;;;;45.97;25.20;;;1.50;99.90;;;;;;5114031;28;20050;-67
2022/01/08 02:51:53;;;;;;;47.20;24.35;;;0.80;99.90;;;;;;5112097;28;20047;-67
2022/01/08 02:54:18;;;;;;;55.47;24.67;;;0.70;99.90;;;;;;5113729;28;20040;-67
2022/01/08 02:56:46;;;;;;;45.90;23.20;;;0.10;99.90;;;;;;5114098;28;20543;-67
2022/01/08 02:59:16;;;;;;;47.10;21.20;;;0.90;99.90;;;;;;5113871;28;20126;-67
2022/01/08 03:01:42;;;;;;;37.42;20.20;;;1.00;99.90;;;;;;5111082;28;20487;-67
2022/01/08 03:04:08;;;;;;;40.00;19.67;;;0.50;99.90;;;;;;5111879;28;20058;-68
2022/01/08 03:06:34;;;;;;;43.00;19.50;;;;;;;;;;5112228;28;20051;-68
2022/01/08 03:09:01;;;;;;;41.05;19.40;;;;;;;;;;5111801;28;20062;-68
2022/01/08 03:11:28;;;;;;;39.80;19.30;;;2.10;99.90;;;;;;5112140;28;20036;-68
2022/01/08 03:13:54;;;;;;;43.53;19.95;;;;;;;;;;5111740;28;20084;-68
2022/01/08 03:16:20;;;;;;;39.45;18.83;;;;;;;;;;5111860;28;20077;-68
2022/01/08 03:18:49;;;;;;;39.28;19.30;;;0.80;99.90;;;;;;5111748;28;20044;-68
2022/01/08 03:21:18;;;;;;;40.47;20.42;;;0.90;99.90;;;;;;5111338;28;20052;-68
2022/01/08 03:23:52;;;;;;;34.65;18.15;;;0.80;99.90;;;;;;5094577;28;20050;-68
2022/01/08 03:26:20;;;;;;;33.70;17.50;;;0.80;99.90;;;;;;5111599;28;20052;-68
2022/01/08 03:28:46;;;;;;;36.15;17.83;;;0.80;99.90;;;;;;5112787;27;20491;-68
2022/01/08 03:31:13;;;;;;;37.67;18.65;;;0.80;99.90;;;;;;5111491;28;20052;-68
2022/01/08 03:33:40;;;;;;;36.92;18.23;;;;;;;;;;5112879;28;20119;-68
2022/01/08 03:36:06;;;;;;;38.40;19.73;;;;;;;;;;5111474;28;20051;-68
2022/01/08 03:38:32;;;;;;;36.30;18.02;;;0.10;99.90;;;;;;5111309;28;20635;-68
2022/01/08 03:40:58;;;;;;;36.97;17.70;;;0.80;99.90;;;;;;5111689;28;20039;-68
2022/01/08 03:43:24;;;;;;;34.13;17.45;;;;;;;;;;5112488;28;20039;-68
2022/01/08 03:45:51;;;;;;;38.88;18.48;;;-0.10;99.90;;;;;;5111195;28;20052;-68
2022/01/08 03:50:52;;;;;;;39.85;18.38;;;;;;;;;;5111133;28;20108;-68
2022/01/08 03:53:18;;;;;;;45.08;19.48;;;;;;;;;;5111001;28;20050;-68
2022/01/08 03:55:44;;;;;;;43.05;18.83;;;;;;;;;;5111514;28;20482;-68
2022/01/08 03:58:10;;;;;;;43.58;18.95;;;0.80;99.90;;;;;;5112294;28;20039;-68
2022/01/08 04:00:38;;;;;;;39.65;18.13;;;;;;;;;;5112243;28;20053;-68
2022/01/08 04:03:04;;;;;;;38.83;19.17;;;;;;;;;;5112245;28;20071;-68
2022/01/08 04:05:30;;;;;;;39.72;19.80;;;;;;;;;;5111948;28;20109;-68
2022/01/08 04:07:56;;;;;;;41.83;19.27;;;;;;;;;;5111030;28;20495;-68
2022/01/08 04:10:23;;;;;;;37.88;19.95;;;0.60;99.90;;;;;;5112264;28;20047;-68
2022/01/08 04:12:54;;;;;;;40.53;19.92;;;1.00;99.90;;;;;;5112493;28;20047;-68
2022/01/08 04:15:43;;;;;;;41.47;20.17;;;0.30;99.90;;;;;;5112113;28;20069;-68
2022/01/08 04:18:08;;;;;;;48.47;20.30;;;0.60;99.90;;;;;;5110062;28;20097;-69
2022/01/08 04:20:48;;;;;;;45.00;20.85;;;;;;;;;;5112521;28;20036;-68
2022/01/08 04:23:17;;;;;;;47.17;21.52;;;;;;;;;;5112240;28;20082;-68
2022/01/08 04:25:43;;;;;;;49.78;22.20;;;;;;;;;;5110374;28;20079;-68
2022/01/08 04:28:10;;;;;;;44.95;21.17;;;0.80;99.90;;;;;;5110734;28;20085;-68
2022/01/08 04:30:36;;;;;;;51.78;22.45;;;;;;;;;;5112258;28;20391;-68
2022/01/08 04:33:02;;;;;;;40.60;20.50;;;0.30;99.90;;;;;;5110705;28;20421;-68
2022/01/08 04:35:28;;;;;;;42.67;21.88;;;;;;;;;;5111283;28;20050;-68
2022/01/08 04:37:53;;;;;;;49.88;21.15;;;0.70;99.90;;;;;;5110691;28;20048;-68
2022/01/08 04:40:19;;;;;;;44.03;21.58;;;0.30;99.90;;;;;;5110436;28;20040;-68
2022/01/08 04:42:45;;;;;;;47.55;22.13;;;;;;;;;;5111611;28;20179;-68
2022/01/08 04:45:11;;;;;;;55.42;24.50;;;;;;;;;;5110080;28;20052;-69
2022/01/08 04:47:37;;;;;;;51.70;23.13;;;;;;;;;;5111117;28;20152;-68
2022/01/08 04:50:03;;;;;;;46.50;22.35;;;0.50;99.90;;;;;;5111365;28;20497;-69
2022/01/08 04:52:29;;;;;;;48.97;23.67;;;0.20;99.90;;;;;;5111406;27;20042;-68
2022/01/08 04:54:55;;;;;;;46.90;24.10;;;;;;;;;;5110244;28;20549;-69
2022/01/08 04:57:24;;;;;;;56.60;23.58;;;0.70;99.90;;;;;;5111210;28;20109;-69
2022/01/08 04:59:50;;;;;;;48.80;23.25;;;;;;;;;;5109879;28;20469;-69
2022/01/08 05:02:16;;;;;;;44.60;22.33;;;;;;;;;;5110359;28;20445;-69
2022/01/08 05:04:42;;;;;;;47.75;23.20;;;0.60;99.90;;;;;;5109868;28;20051;-69
2022/01/08 05:07:08;;;;;;;44.80;22.05;;;0.40;99.90;;;;;;5111115;28;20055;-74
2022/01/08 05:09:34;;;;;;;48.10;22.65;;;;;;;;;;5110232;28;20047;-74
2022/01/08 05:12:00;;;;;;;47.50;23.08;;;;;;;;;;5109703;28;20052;-74
2022/01/08 05:14:27;;;;;;;48.05;23.67;;;;;;;;;;5109534;28;20115;-74
2022/01/08 05:16:58;;;;;;;45.92;21.48;;;0.30;99.90;;;;;;5092354;28;20047;-74
2022/01/08 05:19:37;;;;;;;46.60;21.27;;;0.40;99.90;;;;;;5109628;28;20054;-74
2022/01/08 05:22:05;;;;;;;50.08;24.20;;;0.00;99.90;;;;;;5092618;28;20086;-74
2022/01/08 05:24:32;;;;;;;59.35;24.05;;;;;;;;;;5108803;28;20058;-69
2022/01/08 05:27:06;;;;;;;55.10;23.80;;;0.00;99.90;;;;;;5110107;28;20132;-74
2022/01/08 05:29:32;;;;;;;45.05;22.05;;;0.00;99.90;;;;;;5109917;28;20383;-69
2022/01/08 05:31:58;;;;;;;54.63;23.95;;;;;;;;;;5111163;28;20039;-73
2022/01/08 05:34:24;;;;;;;56.50;25.35;;;0.00;99.90;;;;;;5109773;28;20051;-73
2022/01/08 05:36:54;;;;;;;48.30;22.90;;;0.00;99.90;;;;;;5109380;28;20148;-74
2022/01/08 05:39:20;;;;;;;50.78;21.67;;;;;;;;;;5109496;28;20542;-70
2022/01/08 05:41:46;;;;;;;63.40;24.60;;;;;;;;;;5109677;28;20051;-69
2022/01/08 05:44:12;;;;;;;52.65;23.13;;;;;;;;;;5109750;28;20085;-70
2022/01/08 05:46:44;;;;;;;49.42;23.13;;;0.20;99.90;;;;;;5109674;28;20047;-70
2022/01/08 05:49:12;;;;;;;42.28;21.95;;;0.20;99.90;;;;;;5109470;28;20051;-69
2022/01/08 05:51:38;;;;;;;52.30;22.90;;;0.30;99.90;;;;;;5109451;28;20377;-69
2022/01/08 05:54:04;;;;;;;41.72;21.02;;;0.30;99.90;;;;;;5110533;28;20040;-69
2022/01/08 05:56:30;;;;;;;47.15;21.52;;;;;;;;;;5109225;28;20498;-69
2022/01/08 05:58:55;;;;;;;41.20;19.67;;;1.10;99.90;;;;;;5092524;28;20833;-69
2022/01/08 06:01:23;;;;;;;45.83;20.48;;;0.60;99.90;;;;;;5110324;28;20132;-73
2022/01/08 06:03:52;;;;;;;49.70;21.02;;;1.00;99.90;;;;;;5108851;28;20051;-73
2022/01/08 06:06:18;;;;;;;43.38;19.58;;;0.60;99.90;;;;;;5110295;28;20055;-72
2022/01/08 06:08:44;;;;;;;46.25;19.23;;;;;;;;;;5109421;28;20040;-69
2022/01/08 06:11:10;;;;;;;39.85;18.42;;;;;;;;;;5110326;28;20864;-69
2022/01/08 06:13:36;;;;;;;40.55;19.58;;;;;;;;;;5108908;28;20491;-69
2022/01/08 06:16:02;;;;;;;35.60;18.13;;;0.20;99.90;;;;;;5110515;28;20047;-69
2022/01/08 06:18:28;;;;;;;38.60;18.10;;;;;;;;;;5109010;28;20059;-69
2022/01/08 06:20:55;;;;;;;42.50;18.02;;;0.70;99.90;;;;;;5109218;28;20051;-69
2022/01/08 06:23:21;;;;;;;37.78;17.52;;;0.20;99.90;;;;;;5109055;28;20055;-69
2022/01/08 06:25:47;;;;;;;40.42;18.40;;;-0.40;99.90;;;;;;5110773;28;20391;-70
2022/01/08 06:28:13;;;;;;;38.63;17.23;;;;;;;;;;5110297;28;20039;-69
2022/01/08 06:30:39;;;;;;;37.67;17.67;;;0.00;99.90;;;;;;5108886;28;20085;-69
2022/01/08 06:33:05;;;;;;;37.30;18.08;;;0.20;99.90;;;;;;5108868;28;20048;-69
2022/01/08 06:35:31;;;;;;;41.20;18.80;;;;;;;;;;5109399;28;20054;-69
2022/01/08 06:37:57;;;;;;;41.13;18.70;;;0.00;99.90;;;;;;5112890;28;20043;-69
2022/01/08 06:40:23;;;;;;;45.20;18.50;;;;;;;;;;5112729;28;20044;-69
2022/01/08 06:42:49;;;;;;;40.47;19.85;;;0.20;99.90;;;;;;5114178;28;20403;-70
2022/01/08 06:45:15;;;;;;;43.45;18.95;;;0.10;99.90;;;;;;5112938;28;20039;-69
2022/01/08 06:47:45;;;;;;;44.60;19.67;;;;;;;;;;5112361;28;20510;-69
2022/01/08 06:50:11;;;;;;;38.35;18.83;;;;;;;;;;5112532;28;20043;-69
2022/01/08 06:52:37;;;;;;;35.15;17.67;;;0.90;99.90;;;;;;5113711;28;20050;-69
2022/01/08 06:55:06;;;;;;;43.53;19.25;;;0.10;99.90;;;;;;5111897;28;20036;-73
2022/01/08 06:57:32;;;;;;;46.88;21.52;;;0.10;99.90;;;;;;5112353;28;20043;-74
2022/01/08 07:00:00;;;;;;;47.20;19.42;;;0.00;99.90;;;;;;5113656;28;20047;-74
2022/01/08 07:02:26;;;;;;;36.00;17.40;;;;;;;;;;5113315;28;20043;-74
2022/01/08 07:04:52;;;;;;;36.95;18.73;;;-0.20;99.90;;;;;;5111793;28;20059;-74
2022/01/08 07:07:18;;;;;;;43.80;20.85;;;0.30;99.90;;;;;;5111848;28;20080;-73
2022/01/08 07:09:45;;;;;;;43.35;20.95;;;0.10;99.90;;;;;;5113420;28;20063;-70
2022/01/08 07:12:11;;;;;;;37.42;19.42;;;;;;;;;;5113196;28;20061;-69
2022/01/08 07:14:37;;;;;;;43.85;19.38;;;;;;;;;;5112416;28;20138;-70
2022/01/08 07:17:07;;;;;;;41.40;18.90;;;0.20;99.90;;;;;;5111957;28;20058;-70
2022/01/08 07:19:33;;;;;;;36.15;18.48;;;0.00;99.90;;;;;;5111795;28;20047;-70
2022/01/08 07:22:00;;;;;;;46.05;18.75;;;0.00;99.90;;;;;;5113106;28;20051;-69
2022/01/08 07:24:25;;;;;;;39.47;18.00;;;0.20;99.90;;;;;;5113037;28;20471;-69
2022/01/08 07:26:51;;;;;;;39.53;18.33;;;;;;;;;;5111570;28;20051;-69
2022/01/08 07:29:17;;;;;;;45.10;19.70;;;;;;;;;;5113148;28;20040;-69
2022/01/08 07:31:43;;;;;;;39.50;19.05;;;-0.50;99.90;;;;;;5112789;28;20043;-70
2022/01/08 07:34:09;;;;;;;45.65;18.52;;;-0.10;99.90;;;;;;5112924;28;20039;-69
2022/01/08 07:36:35;;;;;;;39.97;18.17;;;0.00;99.90;;;;;;5111320;28;20130;-69
2022/01/08 07:39:01;;;;;;;41.17;18.92;;;-0.10;99.90;;;;;;5112810;28;20051;-70
2022/01/08 07:41:28;;;;;;;40.67;17.80;;;;;;;;;;5112700;28;20051;-69
2022/01/08 07:43:55;;;;;;;38.60;18.23;;;0.60;99.90;;;;;;5112656;28;20057;-69
2022/01/08 07:46:23;;;;;;;37.00;17.67;;;0.20;99.90;;;;;;5112435;28;20043;-69
2022/01/08 07:48:49;;;;;;;29.73;16.73;;;0.30;99.90;;;;;;5112011;28;20069;-69
2022/01/08 07:51:15;;;;;;;45.10;17.58;;;-0.60;99.90;;;;;;5112690;28;20047;-69
2022/01/08 07:53:43;;;;;;;33.60;16.42;;;-0.10;99.90;;;;;;5112327;28;20050;-69
2022/01/08 07:56:09;;;;;;;35.78;18.70;;;-0.40;99.90;;;;;;5112303;28;20043;-69
2022/01/08 07:58:35;;;;;;;38.55;16.67;;;0.40;99.90;;;;;;5111693;28;20046;-74
2022/01/08 08:01:01;;;;;;;34.83;16.95;;;;;;;;;;5110393;28;20505;-74
2022/01/08 08:03:27;;;;;;;38.47;17.30;;;0.40;99.90;;;;;;5109758;28;20550;-74
2022/01/08 08:05:53;;;;;;;39.63;18.45;;;;;;;;;;5112109;27;20134;-73
2022/01/08 08:08:20;;;;;;;43.67;18.65;;;-0.10;99.90;;;;;;5112445;28;20130;-75
2022/01/08 08:10:48;;;;;;;36.58;18.98;;;0.30;99.90;;;;;;5111066;28;20047;-73
2022/01/08 08:13:18;;;;;;;40.35;20.27;;;0.20;99.90;;;;;;5110642;28;20048;-73
2022/01/08 08:15:45;;;;;;;41.60;19.75;;;0.10;99.90;;;;;;5110791;28;20051;-73
2022/01/08 08:18:11;;;;;;;42.60;21.42;;;0.20;99.90;;;;;;5112138;27;20044;-74
2022/01/08 08:20:38;;;;;;;43.30;19.83;;;0.30;99.90;;;;;;5112367;28;20110;-73
2022/01/08 08:23:04;;;;;;;45.28;22.27;;;0.30;99.90;;;;;;5104356;27;20118;-73
2022/01/08 08:25:30;;;;;;;44.08;22.70;;;0.50;99.90;;;;;;5121200;27;20039;-74
2022/01/08 08:28:00;;;;;;;51.72;23.10;;;;;;;;;;5123061;27;20091;-74
2022/01/08 08:30:26;;;;;;;42.42;22.27;;;;;;;;;;5109548;28;20085;-73
2022/01/08 08:32:52;;;;;;;44.00;22.05;;;0.70;99.90;;;;;;5121788;27;20495;-73
2022/01/08 08:35:18;;;;;;;47.67;22.42;;;0.20;99.90;;;;;;5122134;27;20043;-74
2022/01/08 08:37:44;;;;;;;51.97;24.00;;;;;;;;;;5109023;28;20081;-73
2022/01/08 08:40:12;;;;;;;55.60;27.42;;;0.20;99.90;;;;;;5109970;28;20056;-74
2022/01/08 08:42:38;;;;;;;54.88;27.35;;;;;;;;;;5108653;28;20083;-73
2022/01/08 08:45:05;;;;;;;54.38;26.13;;;0.60;99.90;;;;;;5110822;28;20035;-73
2022/01/08 08:47:31;;;;;;;48.45;28.15;;;;;;;;;;5108697;27;20090;-75
2022/01/08 08:49:58;;;;;;;56.55;25.90;;;0.60;99.90;;;;;;5083303;28;20052;-74
2022/01/08 08:52:24;;;;;;;62.38;28.17;;;0.50;99.90;;;;;;5088570;28;20085;-74
2022/01/08 08:54:50;;;;;;;48.60;24.23;;;;;;;;;;5088735;28;20051;-69
2022/01/08 08:57:16;;;;;;;46.22;25.15;;;;;;;;;;5090100;28;20163;-69
2022/01/08 08:59:42;;;;;;;55.55;27.70;;;;;;;;;;5088141;28;20497;-70
2022/01/08 09:02:08;;;;;;;50.78;26.27;;;0.70;99.90;;;;;;5089329;28;20055;-70
2022/01/08 09:04:36;;;;;;;58.60;29.45;;;0.90;99.90;;;;;;5088535;28;20088;-70
2022/01/08 09:07:03;;;;;;;52.55;29.45;;;0.70;99.90;;;;;;5102193;27;20048;-69
2022/01/08 09:09:29;;;;;;;45.13;25.80;;;1.10;99.90;;;;;;5101017;28;20112;-69
2022/01/08 09:11:55;;;;;;;49.25;27.30;;;1.40;99.90;;;;;;5108701;27;20495;-70
2022/01/08 09:14:21;;;;;;;51.83;26.85;;;;;;;;;;5096445;28;20142;-69
2022/01/08 09:16:53;;;;;;;57.03;28.15;;;1.00;99.90;;;;;;5110379;28;20395;-70
2022/01/08 09:19:21;;;;;;;46.20;26.10;;;0.90;99.90;;;;;;5108828;28;20422;-70
2022/01/08 09:21:47;;;;;;;50.42;27.33;;;;;;;;;;5108535;28;20043;-69
2022/01/08 09:24:14;;;;;;;48.17;26.55;;;0.90;99.90;;;;;;5108031;28;20085;-69
2022/01/08 09:26:40;;;;;;;42.80;23.67;;;;;;;;;;5108162;28;20050;-69
2022/01/08 09:29:06;;;;;;;51.17;25.90;;;;;;;;;;5108159;28;20047;-69
2022/01/08 09:31:34;;;;;;;52.38;25.52;;;1.10;99.90;;;;;;5108653;28;20169;-67
2022/01/08 09:34:01;;;;;;;53.67;27.17;;;;;;;;;;5108184;28;20054;-69
2022/01/08 09:36:27;;;;;;;40.72;25.08;;;;;;;;;;5109695;28;20047;-69
2022/01/08 09:38:52;;;;;;;43.20;24.35;;;1.40;99.90;;;;;;5107650;28;20052;-69
2022/01/08 09:41:19;;;;;;;47.90;26.48;;;;;;;;;;5108336;28;20054;-69
2022/01/08 09:43:45;;;;;;;50.22;24.15;;;;;;;;;;5107824;27;20542;-74
2022/01/08 09:46:10;;;;;;;43.55;25.98;;;1.40;99.90;;;;;;5108160;28;20506;-74
2022/01/08 09:48:36;;;;;;;48.75;24.20;;;;;;;;;;5106975;27;20043;-69
2022/01/08 09:51:02;;;;;;;49.15;23.95;;;1.60;99.90;;;;;;5108534;28;20482;-69
2022/01/08 09:53:28;;;;;;;45.30;24.25;;;1.50;99.90;;;;;;5110019;28;20038;-69
2022/01/08 09:55:56;;;;;;;47.20;25.17;;;;;;;;;;5125135;28;20140;-69
2022/01/08 09:58:22;;;;;;;44.95;25.80;;;;;;;;;;5090888;28;20039;-69
2022/01/08 10:00:48;;;;;;;42.25;23.85;;;;;;;;;;5109333;27;20058;-69
2022/01/08 10:03:20;;;;;;;37.72;23.58;;;2.60;99.90;;;;;;5108072;28;20039;-68
2022/01/08 10:05:48;;;;;;;39.90;22.17;;;2.60;99.90;;;;;;5108698;27;20062;-75
2022/01/08 10:08:15;;;;;;;39.25;22.30;;;2.50;99.90;;;;;;5094634;28;20044;-75
2022/01/08 10:10:52;;;;;;;43.42;23.75;;;1.50;99.90;;;;;;5088125;28;20219;-75
2022/01/08 10:13:28;;;;;;;37.17;20.08;;;2.90;99.90;;;;;;5109261;28;20052;-74
2022/01/08 10:18:40;;;;;;;39.17;21.15;;;2.70;99.90;;;;;;5091546;28;20089;-74
2022/01/08 10:21:22;;;;;;;35.45;20.08;;;2.60;99.90;;;;;;5091693;28;20056;-74
2022/01/08 10:23:54;;;;;;;36.40;19.83;;;2.40;99.90;;;;;;5108684;28;20047;-75
2022/01/08 10:26:22;;;;;;;30.52;18.83;;;2.50;99.90;;;;;;5091876;28;20419;-74
2022/01/08 10:28:52;;;;;;;33.70;18.42;;;2.30;99.90;;;;;;5110179;28;20056;-75
2022/01/08 10:31:24;;;;;;;30.10;18.02;;;2.80;99.90;;;;;;5111761;28;20082;-75
2022/01/08 10:34:02;;;;;;;31.35;17.13;;;2.60;99.90;;;;;;5111409;28;20483;-74
2022/01/08 10:36:42;;;;;;;39.38;18.15;;;2.50;99.90;;;;;;5128363;27;20564;-74
2022/01/08 10:39:20;;;;;;;29.10;16.33;;;2.60;99.90;;;;;;5111574;28;20039;-74
2022/01/08 10:41:48;;;;;;;33.53;17.33;;;2.60;99.90;;;;;;5111515;28;20079;-74
2022/01/08 10:44:21;;;;;;;29.10;15.20;;;2.40;99.90;;;;;;5111768;28;20084;-74
2022/01/08 10:46:59;;;;;;;31.38;16.85;;;2.80;99.90;;;;;;5094274;28;20117;-74
2022/01/08 10:49:32;;;;;;;28.52;16.50;;;2.80;99.90;;;;;;5126491;27;20399;-74
2022/01/08 10:52:11;;;;;;;31.42;15.50;;;2.70;99.90;;;;;;5095204;28;20039;-74
2022/01/08 10:54:45;;;;;;;26.45;15.30;;;2.80;99.90;;;;;;5111906;28;20136;-74
2022/01/08 10:57:14;;;;;;;27.90;15.52;;;2.50;99.90;;;;;;5112179;28;20112;-74
2022/01/08 10:59:41;;;;;;;32.83;17.00;;;2.40;99.90;;;;;;5112088;28;20129;-74
2022/01/08 11:02:11;;;;;;;29.25;15.45;;;3.10;99.90;;;;;;5113166;28;20483;-74
2022/01/08 11:04:47;;;;;;;31.90;15.38;;;3.00;99.90;;;;;;5112078;28;20607;-74
2022/01/08 11:07:23;;;;;;;25.65;16.63;;;2.80;99.90;;;;;;5112748;28;20063;-74
2022/01/08 11:09:51;;;;;;;30.63;15.88;;;2.90;99.90;;;;;;5112150;28;20479;-74
2022/01/08 11:12:22;;;;;;;27.95;16.27;;;2.90;99.90;;;;;;5113083;27;20491;-74
2022/01/08 11:17:20;;;;;;;32.10;18.05;;;3.20;99.90;;;;;;5111635;28;20096;-73
2022/01/08 11:19:50;;;;;;;29.33;16.80;;;3.00;99.90;;;;;;5094752;28;20104;-74
2022/01/08 11:22:18;;;;;;;29.77;17.55;;;2.90;99.90;;;;;;5093945;28;20043;-68
2022/01/08 11:25:21;;;;;;;32.05;17.58;;;3.10;99.90;;;;;;5112097;28;20059;-67
2022/01/08 11:28:14;;;;;;;31.50;17.58;;;3.60;99.90;;;;;;5066668;28;20051;-68
2022/01/08 11:30:47;;;;;;;35.97;19.40;;;3.10;99.90;;;;;;5094422;28;20089;-68
2022/01/08 11:35:50;;;;;;;34.97;17.20;;;3.20;99.90;;;;;;5111550;28;20051;-68
2022/01/08 11:38:19;;;;;;;31.85;19.25;;;2.50;99.90;;;;;;5111464;28;20048;-68
2022/01/08 11:40:47;;;;;;;28.50;18.95;;;3.20;99.90;;;;;;5111896;28;20047;-68
2022/01/08 11:43:16;;;;;;;34.75;19.75;;;3.00;99.90;;;;;;5094442;28;20531;-74
2022/01/08 11:45:50;;;;;;;36.35;20.73;;;3.10;99.90;;;;;;5110958;28;20535;-74
2022/01/08 11:48:19;;;;;;;31.85;21.20;;;3.40;99.90;;;;;;5111216;28;20035;-74
2022/01/08 11:50:55;;;;;;;33.03;20.38;;;3.10;99.90;;;;;;5111495;28;20043;-68
2022/01/08 11:53:27;;;;;;;37.53;19.77;;;3.30;99.90;;;;;;5111128;28;20040;-67
2022/01/08 11:56:25;;;;;;;30.63;20.63;;;3.10;99.90;;;;;;5110808;28;20035;-67
2022/01/08 11:59:04;;;;;;;33.20;21.88;;;3.30;99.90;;;;;;5103353;28;20111;-68
2022/01/08 12:01:30;;;;;;;39.05;23.52;;;3.20;99.90;;;;;;5110866;28;20051;-67
2022/01/08 12:03:56;;;;;;;37.33;23.42;;;;;;;;;;5111149;28;20062;-67
2022/01/08 12:09:07;;;;;;;42.67;25.90;;;3.40;99.90;;;;;;5110852;28;20036;-68
2022/01/08 12:11:36;;;;;;;39.05;25.48;;;3.20;99.90;;;;;;5093522;28;20036;-67
2022/01/08 12:14:10;;;;;;;39.28;26.15;;;3.30;99.90;;;;;;5110694;28;20039;-68
2022/01/08 12:16:44;;;;;;;38.53;25.10;;;3.20;99.90;;;;;;5110587;28;20380;-68
2022/01/08 12:19:36;;;;;;;36.60;24.85;;;3.40;99.90;;;;;;5110453;28;20132;-68
2022/01/08 12:22:20;;;;;;;37.83;26.13;;;3.50;99.90;;;;;;5112179;28;20062;-68
2022/01/08 12:24:55;;;;;;;42.13;25.85;;;3.30;99.90;;;;;;5110319;28;20092;-68
2022/01/08 12:27:40;;;;;;;41.30;27.95;;;3.60;99.90;;;;;;5110183;28;20074;-68
2022/01/08 12:30:15;;;;;;;43.30;28.42;;;3.40;99.90;;;;;;5110667;28;20391;-68
2022/01/08 12:32:45;;;;;;;41.83;26.58;;;3.20;99.90;;;;;;5110666;28;20055;-68
2022/01/08 12:35:22;;;;;;;47.13;27.88;;;3.60;99.90;;;;;;5110963;28;20047;-68
2022/01/08 12:38:00;;;;;;;42.38;28.40;;;3.40;99.90;;;;;;5110475;28;20051;-68
2022/01/08 12:40:35;;;;;;;39.72;28.73;;;3.50;99.90;;;;;;5110850;28;20108;-68
2022/01/08 12:43:23;;;;;;;42.50;29.23;;;3.10;99.90;;;;;;5110404;28;20052;-68
2022/01/08 12:45:51;;;;;;;48.28;32.15;;;3.40;99.90;;;;;;5110509;28;20402;-75
2022/01/08 12:48:19;;;;;;;50.25;31.65;;;3.40;99.90;;;;;;5110411;28;20097;-76
2022/01/08 12:50:44;;;;;;;46.80;31.10;;;3.60;99.90;;;;;;5110131;28;20035;-75
2022/01/08 12:53:14;;;;;;;47.03;32.70;;;3.30;99.90;;;;;;5109870;28;20059;-75
2022/01/08 12:55:43;;;;;;;46.67;30.27;;;3.40;99.90;;;;;;5109785;28;20096;-75
2022/01/08 12:58:20;;;;;;;48.05;33.67;;;3.50;99.90;;;;;;5092892;28;20046;-75
2022/01/08 13:01:05;;;;;;;47.53;31.05;;;3.40;99.90;;;;;;5109520;28;20050;-75
2022/01/08 13:03:37;;;;;;;45.50;27.90;;;3.40;99.90;;;;;;5109467;28;20044;-75
2022/01/08 13:06:03;;;;;;;51.35;31.48;;;;;;;;;;5092699;28;20054;-75
2022/01/08 13:08:33;;;;;;;47.60;31.33;;;3.20;99.90;;;;;;5109893;28;20368;-68
2022/01/08 13:11:02;;;;;;;42.10;30.58;;;2.70;99.90;;;;;;5109896;28;20524;-75
2022/01/08 13:13:42;;;;;;;45.92;30.10;;;3.10;99.90;;;;;;5092454;28;20046;-75
2022/01/08 13:16:14;;;;;;;47.53;28.88;;;3.80;99.90;;;;;;5092652;28;20044;-75
2022/01/08 13:18:41;;;;;;;46.30;30.20;;;3.40;99.90;;;;;;5109608;28;20047;-75
2022/01/08 13:21:09;;;;;;;44.28;28.60;;;3.40;99.90;;;;;;5109516;28;20043;-75
2022/01/08 13:23:49;;;;;;;43.55;28.73;;;2.80;99.90;;;;;;5109439;28;20433;-68
2022/01/08 13:26:25;;;;;;;45.67;26.35;;;3.60;99.90;;;;;;5109458;28;20158;-68
2022/01/08 13:28:51;;;;;;;44.05;26.70;;;;;;;;;;5092981;28;20490;-68
2022/01/08 13:31:17;;;;;;;48.00;26.85;;;3.20;99.90;;;;;;5109692;28;20132;-68
2022/01/08 13:33:53;;;;;;;44.90;26.88;;;3.40;99.90;;;;;;5109552;28;20093;-68
2022/01/08 13:36:20;;;;;;;44.72;27.27;;;3.20;99.90;;;;;;5109774;28;20066;-68